createdAt,value
2023-02-27T00:00:40.616Z,90.48
2023-02-27T00:03:07.115Z,90.34
2023-02-27T00:05:33.568Z,90.24
2023-02-27T00:08:00.063Z,90.37
2023-02-27T00:10:26.546Z,90.75
2023-02-27T00:12:53.049Z,90.91
2023-02-27T00:15:20.574Z,89.98
2023-02-27T00:17:47.077Z,90.61
2023-02-27T00:20:16.035Z,90.25
2023-02-27T00:22:43.586Z,90.36
2023-02-27T00:25:11.390Z,90.16
2023-02-27T00:27:38.181Z,90.01
2023-02-27T00:30:06.910Z,89.99
2023-02-27T00:32:33.728Z,90.49
2023-02-27T00:35:00.303Z,90.03
2023-02-27T00:37:26.831Z,90.39
2023-02-27T00:39:53.390Z,89.69
2023-02-27T00:42:19.835Z,89.99
2023-02-27T00:44:46.304Z,89.50
2023-02-27T00:47:12.752Z,89.75
2023-02-27T00:49:39.202Z,89.40
2023-02-27T00:52:05.824Z,89.13
2023-02-27T00:54:32.279Z,89.23
2023-02-27T00:56:58.794Z,88.55
2023-02-27T00:59:25.292Z,89.57
2023-02-27T01:01:51.764Z,89.31
2023-02-27T01:04:18.276Z,89.16
2023-02-27T01:06:44.799Z,89.46
2023-02-27T01:09:11.334Z,88.85
2023-02-27T01:11:37.941Z,89.46
2023-02-27T01:14:05.041Z,89.76
2023-02-27T01:16:31.692Z,89.55
2023-02-27T01:18:58.232Z,89.35
2023-02-27T01:21:25.120Z,89.93
2023-02-27T01:23:51.917Z,90.07
2023-02-27T01:26:18.357Z,89.99
2023-02-27T01:28:44.843Z,89.70
2023-02-27T01:31:11.329Z,89.58
2023-02-27T01:33:37.817Z,89.25
2023-02-27T01:36:04.840Z,90.47
2023-02-27T01:38:31.406Z,89.90
2023-02-27T01:40:57.976Z,90.70
2023-02-27T01:43:24.447Z,90.35
2023-02-27T01:45:51.180Z,91.19
2023-02-27T01:48:37.275Z,91.08
2023-02-27T01:51:08.780Z,90.64
2023-02-27T01:53:38.105Z,90.86
2023-02-27T01:56:16.548Z,91.82
2023-02-27T01:58:45.605Z,91.86
2023-02-27T02:01:12.076Z,91.99
2023-02-27T02:03:49.001Z,92.30
2023-02-27T02:06:15.504Z,92.61
2023-02-27T02:08:46.020Z,92.05
2023-02-27T02:11:14.980Z,92.32
2023-02-27T02:13:42.089Z,91.77
2023-02-27T02:16:17.657Z,92.18
2023-02-27T02:19:11.285Z,92.37
2023-02-27T02:22:12.381Z,92.63
2023-02-27T02:24:50.601Z,93.00
2023-02-27T02:27:30.927Z,94.07
2023-02-27T02:30:13.738Z,93.49
2023-02-27T02:33:01.597Z,93.80
2023-02-27T02:35:40.040Z,93.07
2023-02-27T02:38:06.454Z,93.51
2023-02-27T02:41:00.342Z,94.42
2023-02-27T02:43:46.457Z,93.32
2023-02-27T02:46:36.212Z,94.61
2023-02-27T02:49:19.151Z,94.09
2023-02-27T02:52:01.185Z,93.46
2023-02-27T02:54:43.216Z,94.72
2023-02-27T02:57:23.704Z,95.43
2023-02-27T03:00:14.742Z,94.97
2023-02-27T03:02:48.573Z,95.41
2023-02-27T03:05:26.231Z,96.01
2023-02-27T03:08:00.397Z,95.21
2023-02-27T03:10:37.945Z,95.68
2023-02-27T03:13:52.360Z,96.70
2023-02-27T03:16:25.087Z,95.76
2023-02-27T03:19:00.308Z,95.66
2023-02-27T03:21:36.145Z,96.02
2023-02-27T03:24:06.451Z,96.02
2023-02-27T03:26:41.287Z,96.60
2023-02-27T03:29:11.381Z,95.40
2023-02-27T03:31:46.766Z,95.00
2023-02-27T03:34:22.356Z,96.10
2023-02-27T03:37:02.118Z,96.29
2023-02-27T03:39:44.600Z,95.85
2023-02-27T03:42:26.218Z,95.73
2023-02-27T03:45:32.370Z,97.08
2023-02-27T03:47:59.759Z,96.92
2023-02-27T03:50:26.652Z,97.14
2023-02-27T03:52:53.657Z,96.64
2023-02-27T03:55:30.383Z,97.01
2023-02-27T03:57:57.220Z,98.16
2023-02-27T04:00:26.029Z,97.70
2023-02-27T04:02:54.702Z,97.41
2023-02-27T04:05:23.118Z,96.95
2023-02-27T04:08:18.047Z,96.67
2023-02-27T04:10:56.773Z,96.74
2023-02-27T04:13:32.754Z,95.85
2023-02-27T04:16:15.603Z,96.91
2023-02-27T04:19:12.836Z,96.11
2023-02-27T04:21:56.201Z,96.57
2023-02-27T04:24:43.890Z,96.59
2023-02-27T04:27:35.377Z,96.11
2023-02-27T04:30:07.840Z,96.52
2023-02-27T04:32:57.309Z,96.46
2023-02-27T04:35:34.522Z,97.07
2023-02-27T04:38:09.546Z,97.54
2023-02-27T04:41:00.080Z,96.07
2023-02-27T04:43:28.387Z,97.32
2023-02-27T04:45:57.646Z,97.07
2023-02-27T04:48:28.330Z,96.93
2023-02-27T04:51:05.403Z,96.81
2023-02-27T04:53:39.001Z,96.78
2023-02-27T04:56:14.306Z,96.98
2023-02-27T04:58:51.887Z,96.37
2023-02-27T05:01:30.875Z,96.77
2023-02-27T05:04:00.373Z,96.80
2023-02-27T05:06:35.320Z,97.56
2023-02-27T05:09:08.956Z,97.64
2023-02-27T05:11:52.688Z,97.78
2023-02-27T05:14:26.271Z,98.03
2023-02-27T05:17:17.767Z,98.78
2023-02-27T05:19:45.960Z,98.20
2023-02-27T05:22:24.113Z,99.35
2023-02-27T05:25:03.988Z,99.66
2023-02-27T05:27:48.516Z,98.81
2023-02-27T05:30:24.133Z,99.85
2023-02-27T05:33:01.855Z,99.79
2023-02-27T05:35:41.723Z,99.16
2023-02-27T05:38:15.632Z,98.38
2023-02-27T05:40:50.805Z,99.08
2023-02-27T05:43:28.373Z,98.73
2023-02-27T05:46:01.292Z,99.06
2023-02-27T05:48:49.714Z,98.70
2023-02-27T05:51:18.500Z,98.93
2023-02-27T05:53:50.001Z,98.78
2023-02-27T05:56:21.280Z,98.51
2023-02-27T05:58:55.251Z,98.27
2023-02-27T06:01:21.988Z,97.98
2023-02-27T06:03:48.515Z,98.75
2023-02-27T06:06:18.087Z,98.35
2023-02-27T06:08:45.234Z,98.57
2023-02-27T06:11:13.222Z,98.41
2023-02-27T06:13:41.968Z,98.66
2023-02-27T06:16:11.921Z,98.84
2023-02-27T06:18:38.437Z,98.88
2023-02-27T06:21:05.183Z,99.81
2023-02-27T06:23:31.748Z,98.57
2023-02-27T06:25:58.363Z,99.14
2023-02-27T06:28:25.052Z,99.15
2023-02-27T06:30:57.139Z,98.97
2023-02-27T06:33:26.163Z,98.55
2023-02-27T06:35:53.079Z,99.43
2023-02-27T06:38:19.599Z,98.60
2023-02-27T06:40:46.077Z,99.26
2023-02-27T06:43:12.572Z,99.31
2023-02-27T06:45:39.148Z,98.64
2023-02-27T06:48:05.883Z,98.66
2023-02-27T06:50:32.646Z,99.33
2023-02-27T06:52:59.100Z,98.69
2023-02-27T06:55:25.784Z,99.39
2023-02-27T06:57:52.372Z,100.00
2023-02-27T07:00:19.238Z,99.45
2023-02-27T07:02:45.816Z,100.00
2023-02-27T07:05:12.345Z,100.00
2023-02-27T07:07:42.047Z,99.90
2023-02-27T07:10:12.830Z,100.00
2023-02-27T07:12:40.075Z,100.00
2023-02-27T07:15:07.714Z,100.00
2023-02-27T07:17:34.232Z,100.00
2023-02-27T07:20:00.773Z,100.00
2023-02-27T07:22:27.466Z,100.00
2023-02-27T07:24:53.923Z,100.00
2023-02-27T07:27:20.399Z,100.00
2023-02-27T07:29:46.877Z,100.00
2023-02-27T07:32:13.439Z,100.00
2023-02-27T07:34:39.930Z,100.00
2023-02-27T07:37:06.500Z,100.00
2023-02-27T07:39:33.006Z,100.00
2023-02-27T07:42:00.025Z,100.00
2023-02-27T07:44:26.540Z,99.62
2023-02-27T07:46:53.060Z,100.00
2023-02-27T07:49:19.742Z,99.88
2023-02-27T07:51:46.259Z,99.45
2023-02-27T07:54:12.699Z,99.85
2023-02-27T07:56:39.379Z,99.24
2023-02-27T07:59:05.831Z,99.45
2023-02-27T08:01:32.446Z,99.19
2023-02-27T08:03:58.911Z,98.83
2023-02-27T08:06:25.997Z,98.46
2023-02-27T08:08:53.055Z,98.34
2023-02-27T08:11:19.618Z,97.56
2023-02-27T08:14:02.743Z,97.62
2023-02-27T08:16:32.373Z,96.66
2023-02-27T08:19:00.425Z,96.16
2023-02-27T08:21:29.675Z,95.61
2023-02-27T08:23:56.587Z,95.48
2023-02-27T08:26:23.493Z,95.46
2023-02-27T08:28:50.005Z,94.67
2023-02-27T08:31:16.567Z,94.52
2023-02-27T08:33:43.104Z,93.79
2023-02-27T08:36:10.147Z,93.89
2023-02-27T08:38:36.907Z,93.27
2023-02-27T08:41:04.148Z,92.64
2023-02-27T08:43:30.650Z,92.19
2023-02-27T08:45:57.360Z,90.96
2023-02-27T08:48:24.860Z,90.73
2023-02-27T08:50:52.187Z,89.04
2023-02-27T08:53:18.748Z,88.75
2023-02-27T08:55:49.387Z,88.31
2023-02-27T08:58:17.108Z,88.40
2023-02-27T09:00:44.670Z,88.10
2023-02-27T09:03:11.386Z,88.35
2023-02-27T09:05:38.561Z,87.63
2023-02-27T09:08:05.514Z,86.84
2023-02-27T09:10:33.135Z,86.60
2023-02-27T09:13:00.474Z,85.66
2023-02-27T09:15:28.106Z,85.44
2023-02-27T09:17:56.516Z,85.09
2023-02-27T09:20:23.065Z,84.17
2023-02-27T09:22:49.625Z,84.29
2023-02-27T09:25:16.261Z,82.97
2023-02-27T09:27:42.706Z,82.81
2023-02-27T09:30:09.770Z,82.92
2023-02-27T09:32:36.236Z,82.74
2023-02-27T09:35:02.746Z,82.17
2023-02-27T09:37:29.307Z,81.28
2023-02-27T09:39:55.777Z,80.75
2023-02-27T09:42:26.166Z,80.60
2023-02-27T09:44:55.841Z,80.22
2023-02-27T09:47:31.042Z,78.39
2023-02-27T09:50:02.145Z,78.00
2023-02-27T09:52:34.124Z,77.21
2023-02-27T09:55:01.338Z,76.60
2023-02-27T09:57:41.728Z,75.35
2023-02-27T10:00:17.839Z,75.74
2023-02-27T10:02:58.287Z,75.26
2023-02-27T10:05:47.373Z,75.39
2023-02-27T10:08:36.740Z,74.01
2023-02-27T10:11:11.476Z,74.30
2023-02-27T10:13:40.690Z,73.51
2023-02-27T10:16:11.995Z,72.89
2023-02-27T10:18:47.585Z,71.70
2023-02-27T10:21:19.881Z,70.49
2023-02-27T10:23:59.179Z,69.32
2023-02-27T10:26:37.231Z,67.31
2023-02-27T10:29:18.562Z,67.92
2023-02-27T10:31:47.853Z,67.21
2023-02-27T10:34:18.647Z,67.17
2023-02-27T10:36:46.853Z,66.70
2023-02-27T10:39:18.024Z,67.96
2023-02-27T10:41:46.295Z,68.26
2023-02-27T10:44:18.770Z,67.49
2023-02-27T10:46:45.902Z,66.13
2023-02-27T10:49:22.221Z,66.96
2023-02-27T10:52:08.644Z,64.00
2023-02-27T10:54:35.192Z,64.97
2023-02-27T10:57:04.207Z,64.18
2023-02-27T10:59:36.975Z,61.05
2023-02-27T11:02:20.789Z,59.45
2023-02-27T11:04:53.870Z,60.26
2023-02-27T11:07:31.175Z,61.05
2023-02-27T11:10:22.236Z,61.08
2023-02-27T11:13:02.808Z,59.03
2023-02-27T11:15:32.621Z,59.33
2023-02-27T11:18:29.369Z,61.08
2023-02-27T11:21:20.180Z,60.03
2023-02-27T11:24:04.287Z,59.45
2023-02-27T11:26:39.400Z,59.37
2023-02-27T11:29:07.410Z,59.48
2023-02-27T11:31:37.125Z,57.99
2023-02-27T11:34:04.955Z,57.90
2023-02-27T11:36:47.184Z,58.11
2023-02-27T11:39:27.853Z,57.45
2023-02-27T11:41:56.925Z,56.62
2023-02-27T11:44:38.670Z,56.42
2023-02-27T11:47:19.884Z,56.21
2023-02-27T11:50:06.391Z,57.81
2023-02-27T11:52:43.829Z,56.00
2023-02-27T11:55:18.092Z,55.45
2023-02-27T11:57:50.293Z,55.35
2023-02-27T12:00:47.485Z,56.54
2023-02-27T12:03:41.190Z,56.81
2023-02-27T12:06:16.983Z,56.80
2023-02-27T12:09:23.741Z,56.95
2023-02-27T12:11:51.185Z,56.26
2023-02-27T12:14:23.016Z,56.84
2023-02-27T12:17:08.680Z,57.12
2023-02-27T12:20:09.774Z,56.63
2023-02-27T12:22:41.475Z,56.55
2023-02-27T12:25:21.391Z,54.97
2023-02-27T12:28:00.191Z,56.29
2023-02-27T12:30:31.780Z,55.36
2023-02-27T12:33:02.097Z,53.98
2023-02-27T12:35:33.031Z,54.82
2023-02-27T12:38:00.897Z,54.48
2023-02-27T12:40:37.871Z,54.13
2023-02-27T12:43:26.581Z,53.92
2023-02-27T12:46:07.630Z,54.88
2023-02-27T12:49:07.140Z,53.86
2023-02-27T12:52:05.767Z,55.69
2023-02-27T12:54:46.524Z,54.87
2023-02-27T12:57:27.636Z,55.94
2023-02-27T13:00:26.113Z,56.82
2023-02-27T13:03:05.201Z,56.54
2023-02-27T13:05:56.116Z,55.67
2023-02-27T13:08:45.449Z,56.17
2023-02-27T13:11:43.440Z,55.99
2023-02-27T13:14:43.531Z,56.04
2023-02-27T13:17:17.187Z,53.89
2023-02-27T13:20:05.939Z,54.85
2023-02-27T13:22:43.709Z,55.25
2023-02-27T13:25:14.418Z,56.08
2023-02-27T13:28:04.864Z,57.27
2023-02-27T13:30:52.614Z,57.90
2023-02-27T13:33:25.680Z,58.25
2023-02-27T13:36:05.163Z,57.95
2023-02-27T13:38:49.570Z,58.15
2023-02-27T13:41:25.151Z,59.14
2023-02-27T13:44:12.876Z,59.23
2023-02-27T13:46:39.424Z,58.81
2023-02-27T13:49:05.904Z,58.18
2023-02-27T13:51:35.174Z,58.20
2023-02-27T13:54:14.030Z,58.03
2023-02-27T13:56:45.968Z,55.86
2023-02-27T13:59:19.590Z,54.48
2023-02-27T14:02:11.055Z,55.01
2023-02-27T14:04:53.433Z,55.95
2023-02-27T14:07:23.898Z,54.59
2023-02-27T14:09:59.192Z,55.89
2023-02-27T14:12:46.342Z,56.80
2023-02-27T14:15:22.306Z,57.10
2023-02-27T14:17:56.809Z,56.59
2023-02-27T14:20:27.430Z,55.62
2023-02-27T14:23:15.115Z,55.38
2023-02-27T14:25:46.811Z,55.69
2023-02-27T14:28:36.199Z,55.05
2023-02-27T14:31:05.801Z,54.16
2023-02-27T14:33:48.334Z,52.62
2023-02-27T14:36:22.971Z,52.76
2023-02-27T14:38:53.081Z,53.48
2023-02-27T14:41:28.873Z,52.93
2023-02-27T14:43:58.027Z,52.33
2023-02-27T14:46:26.507Z,51.97
2023-02-27T14:48:58.257Z,52.84
2023-02-27T14:51:25.865Z,54.39
2023-02-27T14:54:13.020Z,55.22
2023-02-27T14:56:40.195Z,56.01
2023-02-27T14:59:28.108Z,55.22
2023-02-27T15:01:57.019Z,55.33
2023-02-27T15:04:27.685Z,54.36
2023-02-27T15:06:56.233Z,53.67
2023-02-27T15:09:34.966Z,53.24
2023-02-27T15:12:04.371Z,52.48
2023-02-27T15:14:35.192Z,50.19
2023-02-27T15:17:01.869Z,52.33
2023-02-27T15:19:30.258Z,51.21
2023-02-27T15:22:04.013Z,51.03
2023-02-27T15:24:49.191Z,52.69
2023-02-27T15:27:20.071Z,53.94
2023-02-27T15:29:58.356Z,54.90
2023-02-27T15:32:33.570Z,55.30
2023-02-27T15:35:04.889Z,56.05
2023-02-27T15:37:33.456Z,56.99
2023-02-27T15:40:01.394Z,58.25
2023-02-27T15:42:31.867Z,57.83
2023-02-27T15:44:58.980Z,58.17
2023-02-27T15:47:28.831Z,58.32
2023-02-27T15:50:07.126Z,56.20
2023-02-27T15:52:42.727Z,56.09
2023-02-27T15:55:22.376Z,54.30
2023-02-27T15:58:02.052Z,56.03
2023-02-27T16:00:34.209Z,57.14
2023-02-27T16:03:01.240Z,55.71
2023-02-27T16:05:34.250Z,54.37
2023-02-27T16:08:02.702Z,53.00
2023-02-27T16:10:40.457Z,52.88
2023-02-27T16:13:25.106Z,52.69
2023-02-27T16:16:18.701Z,51.66
2023-02-27T16:18:48.266Z,50.58
2023-02-27T16:21:16.096Z,51.00
2023-02-27T16:23:43.955Z,51.77
2023-02-27T16:26:31.033Z,52.52
2023-02-27T16:29:03.944Z,53.15
2023-02-27T16:31:31.761Z,53.63
2023-02-27T16:34:01.675Z,56.08
2023-02-27T16:36:31.467Z,55.65
2023-02-27T16:38:58.125Z,53.89
2023-02-27T16:41:25.049Z,54.17
2023-02-27T16:43:53.380Z,53.89
2023-02-27T16:46:20.375Z,54.89
2023-02-27T16:48:53.649Z,56.91
2023-02-27T16:51:23.868Z,57.67
2023-02-27T16:53:55.031Z,58.51
2023-02-27T16:56:35.799Z,60.10
2023-02-27T16:59:03.718Z,60.93
2023-02-27T17:01:32.302Z,60.98
2023-02-27T17:04:00.138Z,61.50
2023-02-27T17:06:27.375Z,62.66
2023-02-27T17:08:56.037Z,62.53
2023-02-27T17:11:22.801Z,63.20
2023-02-27T17:13:49.222Z,64.40
2023-02-27T17:16:16.021Z,64.18
2023-02-27T17:18:42.541Z,65.23
2023-02-27T17:21:09.114Z,65.32
2023-02-27T17:23:35.560Z,65.29
2023-02-27T17:26:02.148Z,65.32
2023-02-27T17:28:28.684Z,65.91
2023-02-27T17:30:56.334Z,67.37
2023-02-27T17:33:23.262Z,67.05
2023-02-27T17:35:49.951Z,66.76
2023-02-27T17:38:17.087Z,67.84
2023-02-27T17:40:43.564Z,68.07
2023-02-27T17:43:10.307Z,68.27
2023-02-27T17:45:38.477Z,68.79
2023-02-27T17:48:05.172Z,68.50
2023-02-27T17:50:32.101Z,69.28
2023-02-27T17:52:58.567Z,69.29
2023-02-27T17:55:25.060Z,69.63
2023-02-27T17:57:51.534Z,69.85
2023-02-27T18:00:18.438Z,69.64
2023-02-27T18:02:45.444Z,70.32
2023-02-27T18:05:11.990Z,69.94
2023-02-27T18:07:38.915Z,70.50
2023-02-27T18:10:06.961Z,71.39
2023-02-27T18:12:33.495Z,71.18
2023-02-27T18:15:01.032Z,72.08
2023-02-27T18:17:28.141Z,71.98
2023-02-27T18:19:54.652Z,72.71
2023-02-27T18:22:22.121Z,72.90
2023-02-27T18:24:51.699Z,73.41
2023-02-27T18:27:18.243Z,73.55
2023-02-27T18:29:44.774Z,73.96
2023-02-27T18:32:11.556Z,74.15
2023-02-27T18:34:40.579Z,74.25
2023-02-27T18:37:07.525Z,74.81
2023-02-27T18:39:34.049Z,75.83
2023-02-27T18:42:00.873Z,75.82
2023-02-27T18:44:27.409Z,77.03
2023-02-27T18:46:54.164Z,76.75
2023-02-27T18:49:20.661Z,77.15
2023-02-27T18:51:47.220Z,77.28
2023-02-27T18:54:14.459Z,77.05
2023-02-27T18:56:41.452Z,77.84
2023-02-27T18:59:07.964Z,77.94
2023-02-27T19:01:37.545Z,78.34
2023-02-27T19:04:06.414Z,78.45
2023-02-27T19:06:35.799Z,77.82
2023-02-27T19:09:05.656Z,78.10
2023-02-27T19:11:33.383Z,78.19
2023-02-27T19:14:01.688Z,78.62
2023-02-27T19:16:28.500Z,78.90
2023-02-27T19:19:00.399Z,79.49
2023-02-27T19:21:27.814Z,79.35
2023-02-27T19:23:54.955Z,79.27
2023-02-27T19:26:23.187Z,79.31
2023-02-27T19:28:55.930Z,79.63
2023-02-27T19:31:24.122Z,80.35
2023-02-27T19:33:51.187Z,80.06
2023-02-27T19:36:20.574Z,80.12
2023-02-27T19:38:47.327Z,80.27
2023-02-27T19:41:16.698Z,81.01
2023-02-27T19:43:43.994Z,81.32
2023-02-27T19:46:13.268Z,81.32
2023-02-27T19:48:40.274Z,80.81
2023-02-27T19:51:09.334Z,81.13
2023-02-27T19:53:37.276Z,81.56
2023-02-27T19:56:06.453Z,81.96
2023-02-27T19:58:35.539Z,82.06
2023-02-27T20:01:04.163Z,81.85
2023-02-27T20:03:30.760Z,82.77
2023-02-27T20:05:57.328Z,82.40
2023-02-27T20:08:23.894Z,82.62
2023-02-27T20:11:02.598Z,83.21
2023-02-27T20:13:29.573Z,83.06
2023-02-27T20:16:04.517Z,82.56
2023-02-27T20:18:31.901Z,83.26
2023-02-27T20:21:03.293Z,83.52
2023-02-27T20:23:30.998Z,83.94
2023-02-27T20:25:57.711Z,83.66
2023-02-27T20:28:24.214Z,84.47
2023-02-27T20:30:50.698Z,84.57
2023-02-27T20:33:17.226Z,84.35
2023-02-27T20:35:43.742Z,84.86
2023-02-27T20:38:10.385Z,85.03
2023-02-27T20:40:36.931Z,85.14
2023-02-27T20:43:04.086Z,84.86
2023-02-27T20:45:30.554Z,84.90
2023-02-27T20:47:57.110Z,85.37
2023-02-27T20:50:23.664Z,85.19
2023-02-27T20:52:53.822Z,85.49
2023-02-27T20:55:20.353Z,85.73
2023-02-27T20:57:46.812Z,85.92
2023-02-27T21:00:14.523Z,86.09
2023-02-27T21:02:41.084Z,85.86
2023-02-27T21:05:07.889Z,86.63
2023-02-27T21:07:34.409Z,86.50
2023-02-27T21:10:00.913Z,86.77
2023-02-27T21:12:27.476Z,87.03
2023-02-27T21:14:55.800Z,86.90
2023-02-27T21:17:24.480Z,87.56
2023-02-27T21:19:51.006Z,87.40
2023-02-27T21:22:17.720Z,87.95
2023-02-27T21:24:44.159Z,88.21
2023-02-27T21:27:10.727Z,88.19
2023-02-27T21:29:37.209Z,88.41
2023-02-27T21:32:04.026Z,88.36
2023-02-27T21:34:30.526Z,88.60
2023-02-27T21:36:57.153Z,88.55
2023-02-27T21:39:28.374Z,89.20
2023-02-27T21:41:55.340Z,88.83
2023-02-27T21:44:25.162Z,89.48
2023-02-27T21:46:55.679Z,89.48
2023-02-27T21:49:27.726Z,89.23
2023-02-27T21:51:54.819Z,89.45
2023-02-27T21:54:21.996Z,89.66
2023-02-27T21:56:49.944Z,89.74
2023-02-27T21:59:17.935Z,89.70
2023-02-27T22:01:48.245Z,89.78
2023-02-27T22:04:17.158Z,89.94
2023-02-27T22:06:43.833Z,90.43
2023-02-27T22:09:10.430Z,90.70
2023-02-27T22:11:36.920Z,91.28
2023-02-27T22:14:05.538Z,91.03
2023-02-27T22:16:32.126Z,91.19
2023-02-27T22:18:58.672Z,91.29
2023-02-27T22:21:27.176Z,90.97
2023-02-27T22:23:55.166Z,91.35
2023-02-27T22:26:24.473Z,91.84
2023-02-27T22:28:52.308Z,90.67
2023-02-27T22:31:24.706Z,90.87
2023-02-27T22:33:54.010Z,90.34
2023-02-27T22:36:23.149Z,90.41
2023-02-27T22:38:50.612Z,90.82
2023-02-27T22:41:23.506Z,91.41
2023-02-27T22:43:50.660Z,91.13
2023-02-27T22:46:24.808Z,91.02
2023-02-27T22:49:00.395Z,91.49
2023-02-27T22:51:28.613Z,91.70
2023-02-27T22:54:00.782Z,91.97
2023-02-27T22:56:27.940Z,91.96
2023-02-27T22:58:54.539Z,92.58
2023-02-27T23:01:23.896Z,92.36
2023-02-27T23:03:52.927Z,92.62
2023-02-27T23:06:22.785Z,92.57
2023-02-27T23:08:49.710Z,92.43
2023-02-27T23:11:17.752Z,92.32
2023-02-27T23:13:44.727Z,92.61
2023-02-27T23:16:11.689Z,92.71
2023-02-27T23:18:42.596Z,92.63
2023-02-27T23:21:10.205Z,93.25
2023-02-27T23:23:37.165Z,93.08
2023-02-27T23:26:04.820Z,92.94
2023-02-27T23:28:33.159Z,93.73
2023-02-27T23:30:59.930Z,93.39
2023-02-27T23:33:28.209Z,93.79
2023-02-27T23:35:55.529Z,94.20
2023-02-27T23:38:22.133Z,93.82
2023-02-27T23:40:48.642Z,94.11
2023-02-27T23:43:34.203Z,94.64
2023-02-27T23:46:16.702Z,94.56
2023-02-27T23:48:43.441Z,94.83
2023-02-27T23:51:11.024Z,95.09
2023-02-27T23:53:40.076Z,95.54
2023-02-27T23:56:19.092Z,95.98
2023-02-27T23:58:46.250Z,95.97
